createdAt,value
2022-10-02T00:01:31.990Z,2.40
2022-10-02T00:03:58.572Z,2.77
2022-10-02T00:06:25.146Z,2.10
2022-10-02T00:08:59.497Z,2.25
2022-10-02T00:11:45.128Z,1.90
2022-10-02T00:14:16.282Z,1.60
2022-10-02T00:16:44.562Z,1.90
2022-10-02T00:19:11.696Z,1.60
2022-10-02T00:21:38.379Z,1.73
2022-10-02T00:24:08.749Z,1.95
2022-10-02T00:26:54.012Z,1.83
2022-10-02T00:29:39.457Z,2.00
2022-10-02T00:32:25.134Z,2.20
2022-10-02T00:35:14.580Z,2.13
2022-10-02T00:37:43.412Z,2.15
2022-10-02T00:40:28.846Z,2.53
2022-10-02T00:43:14.175Z,2.67
2022-10-02T00:45:45.281Z,2.60
2022-10-02T00:48:47.341Z,3.00
2022-10-02T00:51:26.410Z,2.25
2022-10-02T00:54:11.736Z,2.40
2022-10-02T00:56:47.342Z,2.70
2022-10-02T00:59:17.052Z,2.60
2022-10-02T01:01:46.335Z,2.38
2022-10-02T01:04:19.370Z,2.17
2022-10-02T01:06:45.878Z,2.67
2022-10-02T01:09:12.394Z,2.20
2022-10-02T01:11:38.877Z,2.20
2022-10-02T01:14:05.457Z,2.00
2022-10-02T01:16:32.331Z,2.33
2022-10-02T01:18:58.962Z,2.08
2022-10-02T01:21:37.027Z,2.30
2022-10-02T01:24:06.803Z,1.98
2022-10-02T01:26:33.629Z,1.88
2022-10-02T01:29:00.388Z,2.25
2022-10-02T01:31:30.043Z,2.33
2022-10-02T01:33:56.561Z,1.97
2022-10-02T01:36:23.067Z,1.80
2022-10-02T01:38:49.547Z,2.07
2022-10-02T01:41:16.037Z,1.95
2022-10-02T01:43:43.839Z,2.00
2022-10-02T01:46:28.662Z,2.10
2022-10-02T01:48:58.169Z,1.90
2022-10-02T01:51:30.695Z,1.70
2022-10-02T01:54:04.906Z,2.25
2022-10-02T01:56:34.743Z,2.10
2022-10-02T01:59:07.649Z,1.57
2022-10-02T02:01:39.250Z,1.70
2022-10-02T02:04:25.171Z,1.75
2022-10-02T02:06:57.781Z,1.48
2022-10-02T02:09:32.604Z,1.70
2022-10-02T02:12:08.925Z,1.50
2022-10-02T02:14:40.788Z,1.70
2022-10-02T02:17:19.459Z,1.60
2022-10-02T02:19:47.433Z,1.58
2022-10-02T02:22:40.633Z,1.60
2022-10-02T02:25:08.179Z,1.20
2022-10-02T02:27:36.236Z,1.50
2022-10-02T02:30:07.056Z,1.80
2022-10-02T02:32:35.160Z,1.75
2022-10-02T02:35:04.319Z,1.90
2022-10-02T02:37:31.906Z,1.93
2022-10-02T02:40:00.003Z,1.93
2022-10-02T02:42:27.718Z,1.63
2022-10-02T02:44:59.534Z,1.97
2022-10-02T02:47:49.259Z,1.90
2022-10-02T02:50:20.557Z,2.00
2022-10-02T02:52:50.268Z,1.60
2022-10-02T02:55:18.785Z,1.93
2022-10-02T02:57:52.936Z,2.40
2022-10-02T03:00:20.184Z,2.23
2022-10-02T03:02:46.747Z,1.90
2022-10-02T03:05:14.026Z,2.58
2022-10-02T03:07:41.270Z,2.30
2022-10-02T03:10:31.009Z,2.40
2022-10-02T03:13:01.728Z,1.98
2022-10-02T03:15:28.990Z,1.80
2022-10-02T03:17:55.988Z,2.30
2022-10-02T03:20:35.982Z,1.90
2022-10-02T03:23:12.585Z,1.93
2022-10-02T03:25:41.786Z,2.03
2022-10-02T03:28:27.212Z,2.47
2022-10-02T03:31:03.145Z,2.20
2022-10-02T03:33:29.642Z,1.83
2022-10-02T03:35:56.160Z,2.20
2022-10-02T03:38:23.236Z,1.92
2022-10-02T03:40:53.026Z,1.98
2022-10-02T03:43:20.297Z,2.40
2022-10-02T03:45:51.496Z,2.27
2022-10-02T03:48:18.468Z,2.50
2022-10-02T03:50:44.993Z,2.07
2022-10-02T03:53:20.966Z,2.37
2022-10-02T03:56:05.889Z,1.97
2022-10-02T03:58:32.486Z,1.80
2022-10-02T04:01:03.484Z,1.90
2022-10-02T04:03:48.911Z,1.73
2022-10-02T04:06:16.085Z,1.40
2022-10-02T04:08:47.022Z,1.70
2022-10-02T04:11:18.151Z,1.77
2022-10-02T04:13:48.949Z,1.70
2022-10-02T04:16:15.559Z,2.10
2022-10-02T04:18:51.373Z,1.80
2022-10-02T04:21:36.015Z,1.50
2022-10-02T04:24:21.641Z,1.50
2022-10-02T04:26:54.003Z,1.60
2022-10-02T04:29:21.945Z,1.40
2022-10-02T04:31:49.906Z,1.00
2022-10-02T04:34:16.373Z,1.20
2022-10-02T04:37:01.698Z,1.20
2022-10-02T04:39:28.246Z,1.10
2022-10-02T04:42:15.321Z,1.10
2022-10-02T04:44:44.915Z,1.10
2022-10-02T04:47:31.635Z,1.47
2022-10-02T04:50:17.472Z,1.27
2022-10-02T04:52:59.205Z,1.03
2022-10-02T04:55:25.886Z,1.00
2022-10-02T04:58:11.068Z,1.43
2022-10-02T05:00:44.114Z,1.00
2022-10-02T05:03:13.713Z,1.20
2022-10-02T05:05:58.879Z,1.40
2022-10-02T05:08:44.460Z,1.20
2022-10-02T05:11:11.305Z,1.33
2022-10-02T05:13:56.577Z,1.90
2022-10-02T05:16:42.407Z,1.40
2022-10-02T05:19:14.810Z,1.10
2022-10-02T05:22:00.272Z,1.10
2022-10-02T05:24:42.055Z,1.20
2022-10-02T05:27:27.497Z,1.27
2022-10-02T05:30:10.308Z,1.40
2022-10-02T05:32:41.897Z,1.20
2022-10-02T05:35:17.538Z,1.17
2022-10-02T05:37:50.837Z,1.38
2022-10-02T05:40:18.702Z,1.20
2022-10-02T05:42:48.209Z,1.42
2022-10-02T05:45:32.053Z,1.60
2022-10-02T05:48:03.826Z,1.20
2022-10-02T05:50:31.793Z,1.10
2022-10-02T05:52:59.817Z,1.37
2022-10-02T05:55:39.811Z,1.43
2022-10-02T05:58:17.717Z,1.37
2022-10-02T06:00:47.512Z,1.30
2022-10-02T06:03:23.230Z,1.40
2022-10-02T06:05:50.535Z,1.97
2022-10-02T06:08:18.347Z,1.85
2022-10-02T06:10:54.829Z,1.73
2022-10-02T06:13:30.396Z,1.70
2022-10-02T06:16:17.624Z,1.70
2022-10-02T06:18:47.554Z,1.50
2022-10-02T06:21:21.842Z,1.60
2022-10-02T06:23:50.099Z,1.50
2022-10-02T06:26:43.016Z,1.87
2022-10-02T06:29:18.320Z,1.17
2022-10-02T06:31:51.611Z,1.37
2022-10-02T06:34:18.248Z,1.10
2022-10-02T06:36:48.212Z,1.50
2022-10-02T06:39:31.402Z,1.30
2022-10-02T06:42:17.977Z,1.33
2022-10-02T06:44:48.203Z,1.20
2022-10-02T06:47:18.964Z,1.15
2022-10-02T06:49:48.545Z,1.40
2022-10-02T06:52:35.755Z,1.15
2022-10-02T06:55:19.657Z,1.55
2022-10-02T06:58:03.617Z,1.30
2022-10-02T07:00:30.544Z,1.57
2022-10-02T07:03:18.960Z,1.40
2022-10-02T07:05:54.730Z,1.20
2022-10-02T07:08:21.170Z,1.20
2022-10-02T07:10:56.889Z,1.33
2022-10-02T07:13:28.551Z,1.20
2022-10-02T07:15:55.113Z,1.40
2022-10-02T07:18:32.941Z,1.30
2022-10-02T07:21:08.049Z,2.00
2022-10-02T07:23:39.550Z,1.60
2022-10-02T07:26:06.131Z,1.37
2022-10-02T07:28:39.693Z,1.77
2022-10-02T07:31:09.409Z,1.40
2022-10-02T07:33:47.409Z,1.63
2022-10-02T07:36:34.491Z,1.42
2022-10-02T07:39:08.761Z,1.90
2022-10-02T07:41:47.358Z,1.67
2022-10-02T07:44:32.762Z,1.53
2022-10-02T07:46:59.227Z,1.35
2022-10-02T07:49:58.273Z,1.43
2022-10-02T07:52:24.706Z,1.50
2022-10-02T07:54:52.632Z,1.37
2022-10-02T07:57:24.127Z,1.50
2022-10-02T07:59:51.187Z,1.30
2022-10-02T08:02:37.988Z,1.60
2022-10-02T08:05:06.268Z,1.50
2022-10-02T08:07:32.734Z,1.20
2022-10-02T08:09:59.481Z,1.95
2022-10-02T08:12:26.488Z,1.55
2022-10-02T08:14:53.022Z,1.10
2022-10-02T08:17:30.241Z,1.23
2022-10-02T08:20:07.843Z,1.00
2022-10-02T08:22:36.287Z,1.30
2022-10-02T08:25:08.217Z,1.20
2022-10-02T08:27:47.197Z,1.10
2022-10-02T08:30:13.935Z,0.90
2022-10-02T08:32:40.446Z,1.15
2022-10-02T08:35:14.291Z,0.95
2022-10-02T08:38:01.113Z,0.70
2022-10-02T08:40:32.381Z,0.88
2022-10-02T08:43:08.600Z,0.70
2022-10-02T08:45:38.898Z,1.10
2022-10-02T08:48:17.689Z,0.60
2022-10-02T08:51:20.791Z,0.90
2022-10-02T08:53:57.369Z,0.70
2022-10-02T08:56:23.835Z,0.80
2022-10-02T08:59:08.752Z,0.80
2022-10-02T09:01:39.138Z,1.02
2022-10-02T09:04:21.274Z,0.70
2022-10-02T09:07:06.519Z,0.55
2022-10-02T09:09:37.799Z,0.82
2022-10-02T09:12:09.154Z,0.88
2022-10-02T09:14:53.592Z,0.90
2022-10-02T09:17:22.142Z,1.08
2022-10-02T09:20:08.855Z,1.00
2022-10-02T09:22:55.299Z,0.82
2022-10-02T09:25:22.505Z,0.80
2022-10-02T09:28:03.976Z,0.90
2022-10-02T09:30:33.505Z,0.68
2022-10-02T09:33:16.389Z,0.80
2022-10-02T09:35:55.241Z,0.80
2022-10-02T09:38:38.294Z,0.70
2022-10-02T09:41:16.868Z,0.63
2022-10-02T09:43:54.977Z,0.60
2022-10-02T09:46:26.856Z,0.52
2022-10-02T09:49:12.074Z,0.50
2022-10-02T09:51:52.301Z,0.70
2022-10-02T09:54:25.219Z,0.68
2022-10-02T09:57:01.071Z,0.63
2022-10-02T09:59:30.676Z,0.60
2022-10-02T10:02:02.146Z,0.60
2022-10-02T10:05:05.453Z,0.70
2022-10-02T10:07:53.977Z,0.60
2022-10-02T10:10:20.542Z,0.52
2022-10-02T10:13:07.720Z,0.60
2022-10-02T10:15:34.285Z,0.50
2022-10-02T10:18:19.753Z,0.57
2022-10-02T10:21:06.634Z,0.60
2022-10-02T10:23:42.953Z,0.93
2022-10-02T10:26:28.480Z,0.57
2022-10-02T10:29:07.776Z,0.70
2022-10-02T10:31:37.600Z,0.68
2022-10-02T10:34:04.228Z,0.75
2022-10-02T10:36:49.519Z,0.60
2022-10-02T10:39:34.773Z,0.65
2022-10-02T10:42:24.556Z,0.57
2022-10-02T10:44:51.231Z,0.70
2022-10-02T10:47:37.136Z,0.60
2022-10-02T10:50:24.451Z,0.60
2022-10-02T10:53:00.417Z,0.60
2022-10-02T10:55:29.918Z,0.70
2022-10-02T10:57:59.931Z,0.60
2022-10-02T11:00:46.662Z,0.68
2022-10-02T11:03:27.111Z,0.68
2022-10-02T11:06:12.609Z,0.77
2022-10-02T11:08:48.288Z,0.70
2022-10-02T11:11:14.968Z,0.90
2022-10-02T11:13:44.516Z,0.70
2022-10-02T11:16:29.906Z,0.77
2022-10-02T11:19:03.173Z,0.60
2022-10-02T11:21:38.485Z,0.70
2022-10-02T11:24:24.870Z,0.70
2022-10-02T11:26:55.372Z,0.90
2022-10-02T11:29:31.097Z,0.80
2022-10-02T11:32:03.809Z,0.93
2022-10-02T11:34:35.399Z,0.70
2022-10-02T11:37:13.974Z,0.70
2022-10-02T11:39:59.304Z,0.80
2022-10-02T11:42:35.052Z,0.75
2022-10-02T11:45:13.981Z,0.60
2022-10-02T11:47:49.600Z,0.63
2022-10-02T11:50:19.239Z,0.65
2022-10-02T11:52:52.556Z,0.90
2022-10-02T11:55:34.389Z,0.73
2022-10-02T11:58:13.191Z,0.50
2022-10-02T12:00:44.153Z,0.70
2022-10-02T12:03:21.591Z,0.75
2022-10-02T12:06:03.257Z,0.60
2022-10-02T12:08:48.672Z,0.93
2022-10-02T12:11:15.271Z,0.73
2022-10-02T12:13:48.306Z,0.60
2022-10-02T12:16:33.298Z,0.80
2022-10-02T12:19:19.669Z,0.85
2022-10-02T12:22:31.094Z,0.65
2022-10-02T12:25:29.116Z,0.65
2022-10-02T12:27:58.759Z,0.50
2022-10-02T12:30:45.473Z,0.80
2022-10-02T12:33:12.604Z,0.68
2022-10-02T12:35:39.647Z,0.80
2022-10-02T12:38:12.359Z,0.65
2022-10-02T12:40:38.827Z,0.50
2022-10-02T12:43:24.784Z,0.60
2022-10-02T12:46:13.252Z,0.68
2022-10-02T12:48:52.059Z,0.50
2022-10-02T12:51:21.485Z,0.68
2022-10-02T12:54:07.813Z,0.50
2022-10-02T12:56:53.125Z,0.50
2022-10-02T12:59:25.596Z,0.50
2022-10-02T13:02:11.135Z,0.60
2022-10-02T13:04:42.123Z,0.50
2022-10-02T13:07:13.596Z,0.40
2022-10-02T13:09:58.935Z,0.70
2022-10-02T13:12:35.117Z,0.80
2022-10-02T13:15:18.740Z,0.60
2022-10-02T13:17:47.684Z,0.55
2022-10-02T13:20:28.283Z,0.90
2022-10-02T13:22:54.846Z,0.70
2022-10-02T13:25:40.216Z,0.60
2022-10-02T13:28:14.676Z,0.80
2022-10-02T13:30:43.631Z,0.60
2022-10-02T13:33:16.931Z,0.50
2022-10-02T13:36:01.208Z,0.50
2022-10-02T13:38:30.712Z,0.50
2022-10-02T13:40:58.224Z,0.40
2022-10-02T13:43:26.744Z,0.60
2022-10-02T13:46:13.015Z,0.50
2022-10-02T13:48:58.767Z,0.65
2022-10-02T13:51:31.271Z,0.68
2022-10-02T13:54:06.819Z,0.50
2022-10-02T13:56:52.097Z,0.50
2022-10-02T13:59:22.419Z,0.68
2022-10-02T14:01:50.302Z,0.75
2022-10-02T14:04:23.630Z,0.52
2022-10-02T14:06:51.262Z,1.13
2022-10-02T14:09:17.718Z,0.90
2022-10-02T14:11:56.615Z,1.00
2022-10-02T14:14:26.113Z,0.80
2022-10-02T14:16:55.937Z,0.80
2022-10-02T14:19:28.578Z,1.00
2022-10-02T14:22:01.036Z,0.70
2022-10-02T14:24:59.895Z,0.68
2022-10-02T14:27:41.782Z,0.82
2022-10-02T14:30:13.945Z,0.60
2022-10-02T14:32:59.234Z,0.73
2022-10-02T14:35:28.938Z,0.73
2022-10-02T14:38:01.311Z,0.90
2022-10-02T14:40:40.406Z,0.68
2022-10-02T14:43:09.932Z,0.82
2022-10-02T14:45:36.415Z,0.98
2022-10-02T14:48:13.146Z,1.45
2022-10-02T14:50:41.052Z,1.15
2022-10-02T14:53:14.620Z,1.45
2022-10-02T14:55:50.361Z,1.30
2022-10-02T14:58:22.944Z,1.27
2022-10-02T15:00:50.221Z,1.77
2022-10-02T15:03:19.832Z,1.35
2022-10-02T15:06:05.647Z,1.50
2022-10-02T15:08:34.083Z,1.38
2022-10-02T15:11:00.608Z,1.40
2022-10-02T15:13:40.081Z,1.88
2022-10-02T15:16:33.038Z,1.20
2022-10-02T15:19:03.234Z,1.27
2022-10-02T15:21:53.146Z,1.00
2022-10-02T15:24:29.741Z,1.20
2022-10-02T15:27:02.309Z,0.77
2022-10-02T15:29:40.936Z,0.63
2022-10-02T15:32:07.453Z,1.27
2022-10-02T15:34:33.955Z,1.00
2022-10-02T15:37:04.907Z,1.02
2022-10-02T15:39:34.733Z,1.10
2022-10-02T15:42:08.926Z,1.08
2022-10-02T15:44:54.299Z,1.63
2022-10-02T15:47:59.419Z,1.50
2022-10-02T15:50:44.727Z,2.03
2022-10-02T15:53:26.441Z,2.17
2022-10-02T15:55:58.721Z,1.50
2022-10-02T15:58:37.408Z,1.65
2022-10-02T16:01:14.511Z,1.98
2022-10-02T16:03:43.317Z,2.00
2022-10-02T16:06:22.990Z,2.88
2022-10-02T16:08:49.513Z,2.25
2022-10-02T16:11:33.484Z,2.28
2022-10-02T16:14:19.208Z,1.77
2022-10-02T16:17:04.507Z,2.10
2022-10-02T16:19:37.408Z,1.48
2022-10-02T16:22:14.371Z,1.98
2022-10-02T16:24:56.231Z,1.92
2022-10-02T16:27:32.875Z,2.50
2022-10-02T16:30:12.025Z,2.22
2022-10-02T16:32:46.928Z,1.80
2022-10-02T16:35:32.189Z,2.22
2022-10-02T16:38:00.071Z,2.42
2022-10-02T16:40:27.564Z,2.60
2022-10-02T16:43:13.154Z,2.65
2022-10-02T16:45:49.391Z,2.85
2022-10-02T16:48:19.530Z,2.90
2022-10-02T16:51:12.834Z,3.40
2022-10-02T16:53:42.421Z,3.33
2022-10-02T16:56:11.339Z,3.45
2022-10-02T16:58:50.128Z,3.92
2022-10-02T17:01:22.478Z,4.68
2022-10-02T17:04:09.358Z,4.18
2022-10-02T17:06:44.166Z,4.63
2022-10-02T17:09:17.448Z,4.50
2022-10-02T17:11:53.363Z,4.28
2022-10-02T17:14:31.214Z,4.57
2022-10-02T17:17:02.024Z,4.47
2022-10-02T17:19:30.873Z,5.03
2022-10-02T17:22:04.379Z,5.75
2022-10-02T17:24:51.197Z,6.07
2022-10-02T17:27:17.976Z,6.10
2022-10-02T17:29:51.240Z,4.47
2022-10-02T17:32:53.442Z,6.22
2022-10-02T17:35:40.315Z,6.32
2022-10-02T17:38:25.655Z,6.65
2022-10-02T17:41:04.969Z,5.13
2022-10-02T17:43:38.189Z,5.70
2022-10-02T17:46:23.540Z,5.00
2022-10-02T17:48:51.116Z,4.35
2022-10-02T17:51:51.439Z,5.30
2022-10-02T17:54:48.235Z,4.70
2022-10-02T17:57:21.198Z,4.35
2022-10-02T17:59:50.812Z,4.43
2022-10-02T18:02:36.547Z,5.40
2022-10-02T18:05:03.338Z,7.20
2022-10-02T18:07:29.872Z,7.80
2022-10-02T18:09:59.558Z,7.90
2022-10-02T18:12:26.042Z,8.75
2022-10-02T18:14:55.723Z,7.63
2022-10-02T18:17:40.109Z,6.20
2022-10-02T18:20:19.460Z,2.58
2022-10-02T18:22:52.044Z,2.05
2022-10-02T18:25:29.891Z,2.20
2022-10-02T18:27:59.771Z,2.85
2022-10-02T18:30:31.152Z,2.60
2022-10-02T18:33:01.570Z,2.80
2022-10-02T18:35:34.980Z,2.90
2022-10-02T18:38:01.733Z,3.47
2022-10-02T18:40:29.419Z,2.58
2022-10-02T18:43:14.516Z,2.28
2022-10-02T18:46:00.310Z,2.00
2022-10-02T18:48:33.916Z,2.28
2022-10-02T18:51:07.071Z,2.33
2022-10-02T18:53:52.641Z,2.33
2022-10-02T18:56:23.237Z,1.73
2022-10-02T18:59:02.687Z,2.33
2022-10-02T19:01:29.262Z,2.05
2022-10-02T19:03:58.338Z,2.88
2022-10-02T19:06:26.896Z,2.90
2022-10-02T19:09:05.151Z,2.58
2022-10-02T19:11:32.244Z,3.17
2022-10-02T19:14:02.324Z,2.65
2022-10-02T19:16:30.204Z,2.53
2022-10-02T19:19:07.293Z,3.35
2022-10-02T19:21:34.511Z,2.80
2022-10-02T19:24:08.380Z,2.95
2022-10-02T19:26:35.342Z,2.28
2022-10-02T19:29:13.952Z,2.33
2022-10-02T19:31:41.750Z,2.78
2022-10-02T19:34:13.544Z,2.65
2022-10-02T19:36:44.218Z,2.55
2022-10-02T19:39:18.089Z,2.30
2022-10-02T19:41:44.584Z,2.58
2022-10-02T19:44:25.964Z,2.10
2022-10-02T19:46:56.580Z,2.22
2022-10-02T19:49:23.040Z,1.80
2022-10-02T19:51:50.971Z,2.28
2022-10-02T19:54:36.301Z,1.83
2022-10-02T19:57:12.499Z,2.08
2022-10-02T19:59:43.081Z,2.20
2022-10-02T20:02:14.695Z,2.33
2022-10-02T20:04:41.174Z,2.67
2022-10-02T20:07:10.260Z,2.65
2022-10-02T20:09:38.443Z,2.67
2022-10-02T20:12:06.476Z,2.30
2022-10-02T20:14:35.697Z,2.78
2022-10-02T20:17:11.195Z,2.63
2022-10-02T20:19:42.820Z,2.38
2022-10-02T20:22:24.236Z,3.17
2022-10-02T20:24:56.027Z,2.85
2022-10-02T20:27:24.631Z,3.15
2022-10-02T20:29:52.715Z,2.85
2022-10-02T20:32:27.317Z,3.13
2022-10-02T20:34:55.142Z,3.35
2022-10-02T20:37:22.667Z,3.13
2022-10-02T20:40:02.276Z,3.47
2022-10-02T20:42:30.280Z,2.95
2022-10-02T20:44:56.859Z,2.90
2022-10-02T20:47:42.041Z,2.88
2022-10-02T20:50:27.660Z,2.70
2022-10-02T20:53:13.333Z,2.50
2022-10-02T20:55:47.874Z,3.30
2022-10-02T20:58:20.386Z,2.95
2022-10-02T21:01:05.872Z,3.15
2022-10-02T21:03:45.729Z,2.60
2022-10-02T21:06:15.245Z,2.33
2022-10-02T21:08:41.867Z,2.50
2022-10-02T21:11:20.590Z,2.00
2022-10-02T21:14:25.741Z,2.00
2022-10-02T21:16:58.085Z,2.10
2022-10-02T21:19:24.640Z,2.20
2022-10-02T21:21:57.305Z,2.40
2022-10-02T21:24:33.749Z,3.00
2022-10-02T21:27:15.586Z,3.05
2022-10-02T21:29:48.470Z,3.67
2022-10-02T21:32:15.925Z,3.35
2022-10-02T21:35:00.974Z,3.20
2022-10-02T21:37:28.092Z,3.70
2022-10-02T21:39:54.659Z,4.30
2022-10-02T21:42:27.533Z,3.90
2022-10-02T21:44:54.624Z,3.97
2022-10-02T21:47:41.507Z,4.35
2022-10-02T21:50:11.963Z,7.53
2022-10-02T21:52:44.508Z,8.13
2022-10-02T21:55:17.195Z,9.20
2022-10-02T21:57:50.093Z,9.20
2022-10-02T22:00:26.625Z,7.95
2022-10-02T22:03:05.510Z,5.40
2022-10-02T22:05:31.972Z,5.15
2022-10-02T22:08:08.280Z,4.20
2022-10-02T22:10:40.757Z,6.32
2022-10-02T22:13:20.278Z,5.55
2022-10-02T22:15:55.859Z,6.20
2022-10-02T22:18:42.776Z,4.87
2022-10-02T22:21:13.159Z,4.37
2022-10-02T22:23:58.354Z,4.67
2022-10-02T22:26:31.228Z,4.40
2022-10-02T22:29:00.102Z,5.28
2022-10-02T22:31:45.337Z,5.00
2022-10-02T22:34:21.701Z,4.43
2022-10-02T22:37:01.171Z,4.55
2022-10-02T22:39:35.080Z,4.87
2022-10-02T22:42:30.885Z,4.80
2022-10-02T22:44:58.587Z,4.10
2022-10-02T22:47:25.063Z,3.43
2022-10-02T22:49:52.581Z,3.93
2022-10-02T22:52:20.710Z,3.03
2022-10-02T22:54:47.186Z,3.00
2022-10-02T22:57:16.670Z,2.97
2022-10-02T22:59:44.211Z,3.00
2022-10-02T23:02:14.573Z,3.15
2022-10-02T23:04:44.128Z,3.53
2022-10-02T23:07:13.825Z,2.80
2022-10-02T23:09:50.981Z,2.70
2022-10-02T23:12:26.640Z,2.77
2022-10-02T23:15:00.746Z,2.77
2022-10-02T23:17:30.746Z,2.83
2022-10-02T23:20:12.461Z,2.57
2022-10-02T23:22:40.169Z,2.87
2022-10-02T23:25:17.818Z,3.25
2022-10-02T23:27:53.482Z,3.00
2022-10-02T23:30:20.512Z,3.90
2022-10-02T23:32:50.580Z,3.30
2022-10-02T23:35:20.015Z,3.80
2022-10-02T23:37:52.622Z,3.58
2022-10-02T23:40:48.620Z,2.95
2022-10-02T23:43:19.083Z,5.33
2022-10-02T23:45:48.053Z,4.13
2022-10-02T23:48:14.516Z,4.70
2022-10-02T23:50:53.327Z,5.00
2022-10-02T23:53:27.609Z,4.67
2022-10-02T23:56:00.488Z,5.05
2022-10-02T23:58:45.134Z,5.00
